createdAt,value
2017-05-22T00:00:53.713Z,12.35
2017-05-22T00:03:22.674Z,13.30
2017-05-22T00:05:51.612Z,13.13
2017-05-22T00:08:20.571Z,13.27
2017-05-22T00:10:49.508Z,13.02
2017-05-22T00:13:18.449Z,13.35
2017-05-22T00:15:47.426Z,13.67
2017-05-22T00:18:16.377Z,17.40
2017-05-22T00:20:45.319Z,13.55
2017-05-22T00:23:14.275Z,12.88
2017-05-22T00:25:43.211Z,13.45
2017-05-22T00:28:12.157Z,19.45
2017-05-22T00:30:41.115Z,15.42
2017-05-22T00:33:10.046Z,12.15
2017-05-22T00:35:38.977Z,12.07
2017-05-22T00:38:07.943Z,11.82
2017-05-22T00:40:36.876Z,11.83
2017-05-22T00:43:05.831Z,11.55
2017-05-22T00:45:34.810Z,11.03
2017-05-22T00:48:03.767Z,11.45
2017-05-22T00:50:32.713Z,12.57
2017-05-22T00:53:01.697Z,11.35
2017-05-22T00:55:30.630Z,10.72
2017-05-22T00:57:59.563Z,11.17
2017-05-22T01:00:28.542Z,11.00
2017-05-22T01:02:57.489Z,11.13
2017-05-22T01:05:26.440Z,12.12
2017-05-22T01:07:55.422Z,10.25
2017-05-22T01:10:24.367Z,11.20
2017-05-22T01:12:53.310Z,10.47
2017-05-22T01:15:22.289Z,11.05
2017-05-22T01:17:51.227Z,10.83
2017-05-22T01:20:20.163Z,10.65
2017-05-22T01:22:50.099Z,11.58
2017-05-22T01:25:19.060Z,11.98
2017-05-22T01:27:47.993Z,10.83
2017-05-22T01:30:16.965Z,10.58
2017-05-22T01:32:45.927Z,10.75
2017-05-22T01:35:14.853Z,10.82
2017-05-22T01:37:43.825Z,10.65
2017-05-22T01:40:12.774Z,10.28
2017-05-22T01:42:41.711Z,10.67
2017-05-22T01:45:10.699Z,10.45
2017-05-22T01:47:39.626Z,10.25
2017-05-22T01:50:08.562Z,11.15
2017-05-22T01:52:37.643Z,9.72
2017-05-22T01:55:06.572Z,9.95
2017-05-22T01:57:35.498Z,9.43
2017-05-22T02:00:04.502Z,9.88
2017-05-22T02:02:33.449Z,10.63
2017-05-22T02:05:02.386Z,10.07
2017-05-22T02:07:31.334Z,9.65
2017-05-22T02:10:00.257Z,9.98
2017-05-22T02:12:29.181Z,9.22
2017-05-22T02:14:58.158Z,11.07
2017-05-22T02:17:27.101Z,10.13
2017-05-22T02:19:56.027Z,12.10
2017-05-22T02:22:25.111Z,9.07
2017-05-22T02:24:54.057Z,10.20
2017-05-22T02:27:23.012Z,10.87
2017-05-22T02:29:51.963Z,10.22
2017-05-22T02:32:20.916Z,10.53
2017-05-22T02:34:49.865Z,10.10
2017-05-22T02:37:18.837Z,9.85
2017-05-22T02:39:47.785Z,10.35
2017-05-22T02:42:16.722Z,10.68
2017-05-22T02:44:45.674Z,10.43
2017-05-22T02:47:14.620Z,9.73
2017-05-22T02:49:43.542Z,10.33
2017-05-22T02:52:12.502Z,10.97
2017-05-22T02:54:41.500Z,10.45
2017-05-22T02:57:10.445Z,10.30
2017-05-22T02:59:39.402Z,10.60
2017-05-22T03:02:08.356Z,10.12
2017-05-22T03:04:37.304Z,10.60
2017-05-22T03:07:06.258Z,10.43
2017-05-22T03:09:35.190Z,10.55
2017-05-22T03:12:04.122Z,10.65
2017-05-22T03:14:33.109Z,10.53
2017-05-22T03:17:02.034Z,10.58
2017-05-22T03:19:30.980Z,11.60
2017-05-22T03:21:59.960Z,10.55
2017-05-22T03:24:28.909Z,11.33
2017-05-22T03:26:57.834Z,10.33
2017-05-22T03:29:26.813Z,10.45
2017-05-22T03:31:55.736Z,9.97
2017-05-22T03:34:24.687Z,11.03
2017-05-22T03:36:53.641Z,10.72
2017-05-22T03:39:22.585Z,10.88
2017-05-22T03:41:51.528Z,11.48
2017-05-22T03:44:20.483Z,11.10
2017-05-22T03:46:49.437Z,11.50
2017-05-22T03:49:18.367Z,10.62
2017-05-22T03:51:47.319Z,11.10
2017-05-22T03:54:16.253Z,11.17
2017-05-22T03:56:45.177Z,10.23
2017-05-22T03:59:14.138Z,11.87
2017-05-22T04:01:43.086Z,11.92
2017-05-22T04:04:12.033Z,10.32
2017-05-22T04:06:41.016Z,12.83
2017-05-22T04:09:09.947Z,10.55
2017-05-22T04:11:38.897Z,11.15
2017-05-22T04:14:07.902Z,11.20
2017-05-22T04:16:36.852Z,11.53
2017-05-22T04:19:05.791Z,12.48
2017-05-22T04:21:34.781Z,12.93
2017-05-22T04:24:03.736Z,12.80
2017-05-22T04:26:32.666Z,11.02
2017-05-22T04:29:01.621Z,11.58
2017-05-22T04:31:30.548Z,11.80
2017-05-22T04:33:59.478Z,11.27
2017-05-22T04:36:28.449Z,11.52
2017-05-22T04:38:57.390Z,10.73
2017-05-22T04:41:26.341Z,11.53
2017-05-22T04:43:55.316Z,11.73
2017-05-22T04:46:24.274Z,11.00
2017-05-22T04:48:53.213Z,11.92
2017-05-22T04:51:22.169Z,11.45
2017-05-22T04:53:51.099Z,11.58
2017-05-22T04:56:20.049Z,10.88
2017-05-22T04:58:49.007Z,10.90
2017-05-22T05:01:17.964Z,10.40
2017-05-22T05:03:46.911Z,11.97
2017-05-22T05:06:15.866Z,11.35
2017-05-22T05:08:44.789Z,11.30
2017-05-22T05:11:13.739Z,10.67
2017-05-22T05:13:42.724Z,10.22
2017-05-22T05:16:11.730Z,9.90
2017-05-22T05:18:40.665Z,10.77
2017-05-22T05:21:09.648Z,10.02
2017-05-22T05:23:38.593Z,9.85
2017-05-22T05:26:07.515Z,9.20
2017-05-22T05:28:36.492Z,9.97
2017-05-22T05:31:05.440Z,9.87
2017-05-22T05:33:34.359Z,8.77
2017-05-22T05:36:03.340Z,8.28
2017-05-22T05:38:33.319Z,9.10
2017-05-22T05:41:02.385Z,9.50
2017-05-22T05:43:31.372Z,9.38
2017-05-22T05:46:00.327Z,9.70
2017-05-22T05:48:29.252Z,8.32
2017-05-22T05:50:58.218Z,9.18
2017-05-22T05:53:27.159Z,9.43
2017-05-22T05:55:56.102Z,8.32
2017-05-22T05:58:25.061Z,9.58
2017-05-22T06:00:54.002Z,9.42
2017-05-22T06:03:22.930Z,9.15
2017-05-22T06:05:51.891Z,9.87
2017-05-22T06:08:20.823Z,10.32
2017-05-22T06:10:49.747Z,10.60
2017-05-22T06:13:18.724Z,9.12
2017-05-22T06:15:47.657Z,8.83
2017-05-22T06:18:16.603Z,8.83
2017-05-22T06:20:45.550Z,9.25
2017-05-22T06:23:14.920Z,9.20
2017-05-22T06:25:43.896Z,8.37
2017-05-22T06:28:12.848Z,8.48
2017-05-22T06:30:41.780Z,9.40
2017-05-22T06:33:10.701Z,9.48
2017-05-22T06:35:39.646Z,8.93
2017-05-22T06:38:08.589Z,8.95
2017-05-22T06:40:37.518Z,8.43
2017-05-22T06:43:06.462Z,8.03
2017-05-22T06:45:35.396Z,7.95
2017-05-22T06:48:04.337Z,8.07
2017-05-22T06:50:33.289Z,8.86
2017-05-22T06:53:02.233Z,8.70
2017-05-22T06:55:31.169Z,8.53
2017-05-22T06:58:00.145Z,8.62
2017-05-22T07:00:29.089Z,9.63
2017-05-22T07:02:58.036Z,9.12
2017-05-22T07:05:27.005Z,8.67
2017-05-22T07:07:56.000Z,9.52
2017-05-22T07:10:24.917Z,8.33
2017-05-22T07:12:53.869Z,9.23
2017-05-22T07:15:22.818Z,9.02
2017-05-22T07:17:51.738Z,9.17
2017-05-22T07:20:20.715Z,8.72
2017-05-22T07:22:49.657Z,8.38
2017-05-22T07:25:18.574Z,7.87
2017-05-22T07:27:47.535Z,9.05
2017-05-22T07:30:16.480Z,8.13
2017-05-22T07:32:45.402Z,7.77
2017-05-22T07:35:14.347Z,7.62
2017-05-22T07:37:43.292Z,7.70
2017-05-22T07:40:12.598Z,7.75
2017-05-22T07:42:41.653Z,8.05
2017-05-22T07:45:10.610Z,7.43
2017-05-22T07:47:39.545Z,7.47
2017-05-22T07:50:08.701Z,7.17
2017-05-22T07:52:37.720Z,6.80
2017-05-22T07:55:06.661Z,7.32
2017-05-22T07:57:35.650Z,6.72
2017-05-22T08:00:04.611Z,7.33
2017-05-22T08:02:33.558Z,7.42
2017-05-22T08:05:02.533Z,6.43
2017-05-22T08:07:31.460Z,6.55
2017-05-22T08:10:00.394Z,5.70
2017-05-22T08:12:29.350Z,5.22
2017-05-22T08:14:58.378Z,5.80
2017-05-22T08:17:27.362Z,6.66
2017-05-22T08:19:56.337Z,6.30
2017-05-22T08:22:25.266Z,5.68
2017-05-22T08:24:54.201Z,4.68
2017-05-22T08:27:23.499Z,5.18
2017-05-22T08:29:52.685Z,5.52
2017-05-22T08:32:21.634Z,4.84
2017-05-22T08:34:50.611Z,5.00
2017-05-22T08:37:19.573Z,4.52
2017-05-22T08:39:48.510Z,5.16
2017-05-22T08:42:17.477Z,4.74
2017-05-22T08:44:46.406Z,4.58
2017-05-22T08:47:15.346Z,4.88
2017-05-22T08:49:44.299Z,5.02
2017-05-22T08:52:13.225Z,3.74
2017-05-22T08:54:42.148Z,3.70
2017-05-22T08:57:11.136Z,4.34
2017-05-22T08:59:40.054Z,4.60
2017-05-22T09:02:08.974Z,3.40
2017-05-22T09:04:37.926Z,3.98
2017-05-22T09:07:06.844Z,4.30
2017-05-22T09:09:35.806Z,4.02
2017-05-22T09:12:04.773Z,4.10
2017-05-22T09:14:33.716Z,3.84
2017-05-22T09:17:02.636Z,4.36
2017-05-22T09:19:31.601Z,3.80
2017-05-22T09:22:00.526Z,3.68
2017-05-22T09:24:29.450Z,3.70
2017-05-22T09:26:58.416Z,3.20
2017-05-22T09:29:27.335Z,3.14
2017-05-22T09:31:56.259Z,3.14
2017-05-22T09:34:25.242Z,3.70
2017-05-22T09:36:54.195Z,3.20
2017-05-22T09:39:23.134Z,2.76
2017-05-22T09:41:52.108Z,2.90
2017-05-22T09:44:21.031Z,2.70
2017-05-22T09:46:49.969Z,2.48
2017-05-22T09:49:18.918Z,1.86
2017-05-22T09:51:47.834Z,1.80
2017-05-22T09:54:16.772Z,1.54
2017-05-22T09:56:45.730Z,2.30
2017-05-22T09:59:14.659Z,1.50
2017-05-22T10:01:43.609Z,1.40
2017-05-22T10:04:12.577Z,1.40
2017-05-22T10:06:41.513Z,1.50
2017-05-22T10:09:10.434Z,1.54
2017-05-22T10:11:39.383Z,1.90
2017-05-22T10:14:08.322Z,1.86
2017-05-22T10:16:37.241Z,2.16
2017-05-22T10:19:06.181Z,2.74
2017-05-22T10:21:35.125Z,2.22
2017-05-22T10:24:04.054Z,2.30
2017-05-22T10:26:33.142Z,2.20
2017-05-22T10:29:02.085Z,2.42
2017-05-22T10:31:31.029Z,2.30
2017-05-22T10:33:59.997Z,2.20
2017-05-22T10:36:28.915Z,2.22
2017-05-22T10:38:57.854Z,1.74
2017-05-22T10:41:26.820Z,1.92
2017-05-22T10:43:55.759Z,2.12
2017-05-22T10:46:24.679Z,2.42
2017-05-22T10:48:53.644Z,2.40
2017-05-22T10:51:22.588Z,2.52
2017-05-22T10:53:51.514Z,2.54
2017-05-22T10:56:20.481Z,2.60
2017-05-22T10:58:49.402Z,2.40
2017-05-22T11:01:18.347Z,2.52
2017-05-22T11:03:47.330Z,2.30
2017-05-22T11:06:16.258Z,2.44
2017-05-22T11:08:45.186Z,2.72
2017-05-22T11:11:14.142Z,2.26
2017-05-22T11:13:43.088Z,2.40
2017-05-22T11:16:12.009Z,2.42
2017-05-22T11:18:40.959Z,2.14
2017-05-22T11:21:09.917Z,2.68
2017-05-22T11:23:38.839Z,2.42
2017-05-22T11:26:07.790Z,2.36
2017-05-22T11:28:36.733Z,2.68
2017-05-22T11:31:05.677Z,2.22
2017-05-22T11:33:34.629Z,2.30
2017-05-22T11:36:03.568Z,2.50
2017-05-22T11:38:32.499Z,2.80
2017-05-22T11:41:01.474Z,2.48
2017-05-22T11:43:30.398Z,2.66
2017-05-22T11:45:59.337Z,3.60
2017-05-22T11:48:28.308Z,2.72
2017-05-22T11:50:57.260Z,2.40
2017-05-22T11:53:26.188Z,2.32
2017-05-22T11:55:55.152Z,2.80
2017-05-22T11:58:24.089Z,2.74
2017-05-22T12:00:53.019Z,2.50
2017-05-22T12:03:21.974Z,2.72
2017-05-22T12:05:50.920Z,2.40
2017-05-22T12:08:19.843Z,2.64
2017-05-22T12:10:48.827Z,2.62
2017-05-22T12:13:17.759Z,2.66
2017-05-22T12:15:46.693Z,2.84
2017-05-22T12:18:15.672Z,2.70
2017-05-22T12:20:44.598Z,2.32
2017-05-22T12:23:13.541Z,2.80
2017-05-22T12:25:42.514Z,2.44
2017-05-22T12:28:11.460Z,2.28
2017-05-22T12:30:40.410Z,2.75
2017-05-22T12:33:09.367Z,2.85
2017-05-22T12:35:38.309Z,2.27
2017-05-22T12:38:07.261Z,2.70
2017-05-22T12:40:36.245Z,2.60
2017-05-22T12:43:05.170Z,2.32
2017-05-22T12:45:34.093Z,2.20
2017-05-22T12:48:03.047Z,2.50
2017-05-22T12:50:31.993Z,2.63
2017-05-22T12:53:00.929Z,2.32
2017-05-22T12:55:29.885Z,2.70
2017-05-22T12:57:58.832Z,2.22
2017-05-22T13:00:27.780Z,2.27
2017-05-22T13:02:56.748Z,2.28
2017-05-22T13:05:25.701Z,2.60
2017-05-22T13:07:54.626Z,2.52
2017-05-22T13:10:23.593Z,2.18
2017-05-22T13:12:52.518Z,2.83
2017-05-22T13:15:21.461Z,2.58
2017-05-22T13:17:50.440Z,2.45
2017-05-22T13:20:19.385Z,2.62
2017-05-22T13:22:48.314Z,2.32
2017-05-22T13:25:17.288Z,2.30
2017-05-22T13:27:46.241Z,2.53
2017-05-22T13:30:15.188Z,2.58
2017-05-22T13:32:44.165Z,2.70
2017-05-22T13:35:13.709Z,2.42
2017-05-22T13:37:42.661Z,2.37
2017-05-22T13:40:11.641Z,2.67
2017-05-22T13:42:40.601Z,2.46
2017-05-22T13:45:09.545Z,2.40
2017-05-22T13:47:38.528Z,2.83
2017-05-22T13:50:07.472Z,2.45
2017-05-22T13:52:36.397Z,2.40
2017-05-22T13:55:05.369Z,2.50
2017-05-22T13:57:34.304Z,2.68
2017-05-22T14:00:03.251Z,2.80
2017-05-22T14:02:32.210Z,3.25
2017-05-22T14:05:01.209Z,2.53
2017-05-22T14:07:30.178Z,2.85
2017-05-22T14:09:59.151Z,2.57
2017-05-22T14:12:28.130Z,2.37
2017-05-22T14:14:57.077Z,2.20
2017-05-22T14:17:26.125Z,2.25
2017-05-22T14:19:55.077Z,2.93
2017-05-22T14:22:24.001Z,2.70
2017-05-22T14:24:52.956Z,2.72
2017-05-22T14:27:21.878Z,2.78
2017-05-22T14:29:50.820Z,2.90
2017-05-22T14:32:19.798Z,2.92
2017-05-22T14:34:48.741Z,2.72
2017-05-22T14:37:17.683Z,2.70
2017-05-22T14:39:46.641Z,2.90
2017-05-22T14:42:15.589Z,3.17
2017-05-22T14:44:44.534Z,2.98
2017-05-22T14:47:13.505Z,2.65
2017-05-22T14:49:42.445Z,2.75
2017-05-22T14:52:11.393Z,3.20
2017-05-22T14:54:40.363Z,2.70
2017-05-22T14:57:09.290Z,2.82
2017-05-22T14:59:38.225Z,3.13
2017-05-22T15:02:07.176Z,2.90
2017-05-22T15:04:36.102Z,3.05
2017-05-22T15:07:05.045Z,3.10
2017-05-22T15:09:34.003Z,3.02
2017-05-22T15:12:02.953Z,3.10
2017-05-22T15:14:31.902Z,3.15
2017-05-22T15:17:00.858Z,3.37
2017-05-22T15:19:29.810Z,2.73
2017-05-22T15:21:58.735Z,3.43
2017-05-22T15:24:27.721Z,3.20
2017-05-22T15:26:56.647Z,4.20
2017-05-22T15:29:25.567Z,2.90
2017-05-22T15:31:54.538Z,2.57
2017-05-22T15:34:23.485Z,2.90
2017-05-22T15:36:52.428Z,2.53
2017-05-22T15:39:21.387Z,3.48
2017-05-22T15:41:50.310Z,2.58
2017-05-22T15:44:19.251Z,3.08
2017-05-22T15:46:48.225Z,3.35
2017-05-22T15:49:17.165Z,3.40
2017-05-22T15:51:46.097Z,3.05
2017-05-22T15:54:15.072Z,2.60
2017-05-22T15:56:44.173Z,2.70
2017-05-22T15:59:13.114Z,2.68
2017-05-22T16:01:42.096Z,3.10
2017-05-22T16:04:11.036Z,3.85
2017-05-22T16:06:39.967Z,2.80
2017-05-22T16:09:08.944Z,3.30
2017-05-22T16:11:37.867Z,3.42
2017-05-22T16:14:06.801Z,3.80
2017-05-22T16:16:35.773Z,5.45
2017-05-22T16:19:04.709Z,2.55
2017-05-22T16:21:33.628Z,3.40
2017-05-22T16:24:02.576Z,2.73
2017-05-22T16:26:31.521Z,3.37
2017-05-22T16:29:00.464Z,3.13
2017-05-22T16:31:29.419Z,2.80
2017-05-22T16:33:58.344Z,2.80
2017-05-22T16:36:27.288Z,2.83
2017-05-22T16:38:56.239Z,2.83
2017-05-22T16:41:25.164Z,2.92
2017-05-22T16:43:54.101Z,2.92
2017-05-22T16:46:23.078Z,3.10
2017-05-22T16:48:52.001Z,3.45
2017-05-22T16:51:20.945Z,2.87
2017-05-22T16:53:49.890Z,4.03
2017-05-22T16:56:18.814Z,2.97
2017-05-22T16:58:47.748Z,3.60
2017-05-22T17:01:16.723Z,4.65
2017-05-22T17:03:45.664Z,4.25
2017-05-22T17:06:14.617Z,4.42
2017-05-22T17:08:43.570Z,5.40
2017-05-22T17:11:12.500Z,3.07
2017-05-22T17:13:41.440Z,3.02
2017-05-22T17:16:10.411Z,2.58
2017-05-22T17:18:39.334Z,2.83
2017-05-22T17:21:08.285Z,3.50
2017-05-22T17:23:37.234Z,3.10
2017-05-22T17:26:06.168Z,3.15
2017-05-22T17:28:35.109Z,3.07
2017-05-22T17:31:04.054Z,3.28
2017-05-22T17:33:32.974Z,3.20
2017-05-22T17:36:01.894Z,3.47
2017-05-22T17:38:30.865Z,3.13
2017-05-22T17:40:59.791Z,3.75
2017-05-22T17:43:28.713Z,3.47
2017-05-22T17:45:57.661Z,3.87
2017-05-22T17:48:26.602Z,3.75
2017-05-22T17:50:55.543Z,4.10
2017-05-22T17:53:24.537Z,3.70
2017-05-22T17:55:53.474Z,3.50
2017-05-22T17:58:22.406Z,3.03
2017-05-22T18:00:51.375Z,3.83
2017-05-22T18:03:20.305Z,3.93
2017-05-22T18:05:49.230Z,3.18
2017-05-22T18:08:18.202Z,3.23
2017-05-22T18:10:47.134Z,3.55
2017-05-22T18:13:16.053Z,3.77
2017-05-22T18:15:45.033Z,3.85
2017-05-22T18:18:13.959Z,3.60
2017-05-22T18:20:42.904Z,4.58
2017-05-22T18:23:11.850Z,3.75
2017-05-22T18:25:40.793Z,3.63
2017-05-22T18:28:09.737Z,3.67
2017-05-22T18:30:38.700Z,3.57
2017-05-22T18:33:07.642Z,4.05
2017-05-22T18:35:36.589Z,3.70
2017-05-22T18:38:05.557Z,3.87
2017-05-22T18:40:34.485Z,3.55
2017-05-22T18:43:03.408Z,4.47
2017-05-22T18:45:32.388Z,4.55
2017-05-22T18:48:01.330Z,3.92
2017-05-22T18:50:30.254Z,3.38
2017-05-22T18:52:59.232Z,3.50
2017-05-22T18:55:28.150Z,3.75
2017-05-22T18:57:57.087Z,4.15
2017-05-22T19:00:26.063Z,4.25
2017-05-22T19:02:54.991Z,6.02
2017-05-22T19:05:23.932Z,4.07
2017-05-22T19:07:52.912Z,4.20
2017-05-22T19:10:21.858Z,4.83
2017-05-22T19:12:50.805Z,5.10
2017-05-22T19:15:19.761Z,4.60
2017-05-22T19:17:48.686Z,4.83
2017-05-22T19:20:17.630Z,4.45
2017-05-22T19:22:46.626Z,5.23
2017-05-22T19:25:15.589Z,3.73
2017-05-22T19:27:44.573Z,4.05
2017-05-22T19:30:13.522Z,4.60
2017-05-22T19:32:42.465Z,4.67
2017-05-22T19:35:11.415Z,4.57
2017-05-22T19:37:40.434Z,4.47
2017-05-22T19:40:09.359Z,7.77
2017-05-22T19:42:38.320Z,9.02
2017-05-22T19:45:07.292Z,5.93
2017-05-22T19:47:36.225Z,5.33
2017-05-22T19:50:05.173Z,7.72
2017-05-22T19:52:34.123Z,5.88
2017-05-22T19:55:03.065Z,5.85
2017-05-22T19:57:31.990Z,6.87
2017-05-22T20:00:00.938Z,5.93
2017-05-22T20:02:30.034Z,6.20
2017-05-22T20:04:59.001Z,7.47
2017-05-22T20:07:27.976Z,7.03
2017-05-22T20:09:56.897Z,6.17
2017-05-22T20:12:25.845Z,5.88
2017-05-22T20:14:54.817Z,5.83
2017-05-22T20:17:23.753Z,4.90
2017-05-22T20:19:52.675Z,6.25
2017-05-22T20:22:21.682Z,5.40
2017-05-22T20:24:50.602Z,5.80
2017-05-22T20:27:19.523Z,7.77
2017-05-22T20:29:48.617Z,6.08
2017-05-22T20:32:17.790Z,6.72
2017-05-22T20:34:46.729Z,6.50
2017-05-22T20:37:15.697Z,6.57
2017-05-22T20:39:44.645Z,5.70
2017-05-22T20:42:13.590Z,6.75
2017-05-22T20:44:42.551Z,5.88
2017-05-22T20:47:11.502Z,5.98
2017-05-22T20:49:40.452Z,5.98
2017-05-22T20:52:09.402Z,6.33
2017-05-22T20:54:38.347Z,5.65
2017-05-22T20:57:07.754Z,5.72
2017-05-22T20:59:36.804Z,5.37
2017-05-22T21:02:05.772Z,6.37
2017-05-22T21:04:34.712Z,5.75
2017-05-22T21:07:03.749Z,5.85
2017-05-22T21:09:32.702Z,6.72
2017-05-22T21:12:01.687Z,5.85
2017-05-22T21:14:30.665Z,6.48
2017-05-22T21:16:59.586Z,5.93
2017-05-22T21:19:28.540Z,7.70
2017-05-22T21:21:57.511Z,6.90
2017-05-22T21:24:26.519Z,7.07
2017-05-22T21:26:55.570Z,6.30
2017-05-22T21:29:24.597Z,6.53
2017-05-22T21:31:53.620Z,6.28
2017-05-22T21:34:22.578Z,6.62
2017-05-22T21:36:51.584Z,6.10
2017-05-22T21:39:20.561Z,6.03
2017-05-22T21:41:49.519Z,7.05
2017-05-22T21:44:18.655Z,6.85
2017-05-22T21:46:47.686Z,6.20
2017-05-22T21:49:16.625Z,6.67
2017-05-22T21:51:45.654Z,6.63
2017-05-22T21:54:14.578Z,6.57
2017-05-22T21:56:43.901Z,6.93
2017-05-22T21:59:12.871Z,7.52
2017-05-22T22:01:41.800Z,6.90
2017-05-22T22:04:10.717Z,6.33
2017-05-22T22:06:39.687Z,6.20
2017-05-22T22:09:08.627Z,6.18
2017-05-22T22:11:37.579Z,7.17
2017-05-22T22:14:06.563Z,7.62
2017-05-22T22:16:35.500Z,6.77
2017-05-22T22:19:04.437Z,6.70
2017-05-22T22:21:33.389Z,6.15
2017-05-22T22:24:02.331Z,6.60
2017-05-22T22:26:31.272Z,6.92
2017-05-22T22:29:00.249Z,7.15
2017-05-22T22:31:29.193Z,6.77
2017-05-22T22:33:58.134Z,7.10
2017-05-22T22:36:27.089Z,7.37
2017-05-22T22:38:56.006Z,6.85
2017-05-22T22:41:24.949Z,7.13
2017-05-22T22:43:53.921Z,7.40
2017-05-22T22:46:22.865Z,7.42
2017-05-22T22:48:51.782Z,7.78
2017-05-22T22:51:20.753Z,7.92
2017-05-22T22:53:49.669Z,7.25
2017-05-22T22:56:18.595Z,7.80
2017-05-22T22:58:47.560Z,8.25
2017-05-22T23:01:16.497Z,8.68
2017-05-22T23:03:45.437Z,7.30
2017-05-22T23:06:14.425Z,8.17
2017-05-22T23:08:43.347Z,8.42
2017-05-22T23:11:12.266Z,7.97
2017-05-22T23:13:41.240Z,8.13
2017-05-22T23:16:10.167Z,7.78
2017-05-22T23:18:39.109Z,8.40
2017-05-22T23:21:08.082Z,8.08
2017-05-22T23:23:37.007Z,7.72
2017-05-22T23:26:05.926Z,7.40
2017-05-22T23:28:34.897Z,7.95
2017-05-22T23:31:03.814Z,8.40
2017-05-22T23:33:32.740Z,7.45
2017-05-22T23:36:01.698Z,7.82
2017-05-22T23:38:30.636Z,8.28
2017-05-22T23:40:59.549Z,7.87
2017-05-22T23:43:28.519Z,7.97
2017-05-22T23:45:57.477Z,8.35
2017-05-22T23:48:26.398Z,8.93
2017-05-22T23:50:55.390Z,8.25
2017-05-22T23:53:24.374Z,8.20
2017-05-22T23:55:53.307Z,7.72
2017-05-22T23:58:22.289Z,7.65
